createdAt,value
2019-02-24T00:00:01.640Z,4.57
2019-02-24T00:02:49.648Z,4.50
2019-02-24T00:05:37.797Z,5.00
2019-02-24T00:08:25.651Z,4.17
2019-02-24T00:11:13.546Z,4.33
2019-02-24T00:14:02.106Z,5.47
2019-02-24T00:16:50.244Z,3.53
2019-02-24T00:19:38.567Z,5.57
2019-02-24T00:22:27.169Z,3.43
2019-02-24T00:25:14.993Z,5.03
2019-02-24T00:28:07.269Z,5.40
2019-02-24T00:30:53.155Z,4.23
2019-02-24T00:33:41.359Z,4.70
2019-02-24T00:36:29.640Z,4.07
2019-02-24T00:39:17.492Z,3.53
2019-02-24T00:42:05.969Z,5.20
2019-02-24T00:44:54.037Z,3.17
2019-02-24T00:47:42.315Z,4.30
2019-02-24T00:50:30.661Z,5.27
2019-02-24T00:53:18.736Z,3.33
2019-02-24T00:56:06.883Z,4.87
2019-02-24T00:58:55.042Z,3.90
2019-02-24T01:01:43.614Z,3.90
2019-02-24T01:04:31.767Z,4.63
2019-02-24T01:07:19.775Z,3.50
2019-02-24T01:10:07.840Z,3.80
2019-02-24T01:12:55.934Z,4.13
2019-02-24T01:15:44.018Z,3.97
2019-02-24T01:18:32.256Z,4.37
2019-02-24T01:21:20.315Z,4.70
2019-02-24T01:24:08.308Z,7.20
2019-02-24T01:26:56.112Z,4.80
2019-02-24T01:29:44.535Z,3.80
2019-02-24T01:32:32.907Z,4.47
2019-02-24T01:35:20.704Z,4.03
2019-02-24T01:38:08.748Z,5.23
2019-02-24T01:40:56.936Z,4.83
2019-02-24T01:43:45.234Z,4.30
2019-02-24T01:46:32.951Z,6.87
2019-02-24T01:49:21.473Z,4.27
2019-02-24T01:52:09.329Z,3.67
2019-02-24T01:54:57.886Z,5.90
2019-02-24T01:57:45.909Z,4.10
2019-02-24T02:00:34.433Z,5.27
2019-02-24T02:03:23.005Z,5.17
2019-02-24T02:06:10.887Z,4.23
2019-02-24T02:08:59.028Z,4.53
2019-02-24T02:11:47.133Z,4.50
2019-02-24T02:14:35.223Z,7.17
2019-02-24T02:17:23.017Z,4.47
2019-02-24T02:20:10.991Z,3.77
2019-02-24T02:22:59.163Z,4.17
2019-02-24T02:25:47.076Z,4.07
2019-02-24T02:28:43.581Z,3.47
2019-02-24T02:31:25.063Z,7.53
2019-02-24T02:34:13.036Z,3.67
2019-02-24T02:37:00.869Z,3.67
2019-02-24T02:39:49.273Z,4.13
2019-02-24T02:42:37.207Z,4.17
2019-02-24T02:45:25.293Z,6.17
2019-02-24T02:48:13.228Z,3.83
2019-02-24T02:51:01.816Z,5.77
2019-02-24T02:53:49.861Z,4.97
2019-02-24T02:56:37.930Z,3.50
2019-02-24T02:59:25.796Z,4.47
2019-02-24T03:02:23.824Z,4.53
2019-02-24T03:05:03.568Z,5.27
2019-02-24T03:07:59.067Z,5.23
2019-02-24T03:10:47.628Z,4.03
2019-02-24T03:13:35.649Z,6.10
2019-02-24T03:16:26.699Z,4.63
2019-02-24T03:19:15.045Z,5.00
2019-02-24T03:22:03.403Z,6.63
2019-02-24T03:24:51.318Z,3.77
2019-02-24T03:27:39.175Z,6.40
2019-02-24T03:30:27.519Z,4.77
2019-02-24T03:33:15.778Z,4.37
2019-02-24T03:36:03.883Z,3.87
2019-02-24T03:38:52.002Z,3.67
2019-02-24T03:41:40.394Z,3.50
2019-02-24T03:44:28.473Z,4.20
2019-02-24T03:47:16.576Z,3.40
2019-02-24T03:50:04.798Z,4.27
2019-02-24T03:52:52.840Z,5.33
2019-02-24T03:55:41.310Z,7.30
2019-02-24T03:58:29.453Z,6.33
2019-02-24T04:01:17.451Z,4.03
2019-02-24T04:04:05.363Z,5.70
2019-02-24T04:06:53.745Z,4.27
2019-02-24T04:09:42.472Z,4.63
2019-02-24T04:12:30.638Z,6.30
2019-02-24T04:15:18.475Z,4.57
2019-02-24T04:18:06.771Z,4.87
2019-02-24T04:20:54.512Z,5.27
2019-02-24T04:23:43.213Z,4.57
2019-02-24T04:26:30.958Z,5.80
2019-02-24T04:29:24.758Z,6.17
2019-02-24T04:32:08.802Z,3.83
2019-02-24T04:34:56.913Z,5.53
2019-02-24T04:37:44.660Z,3.67
2019-02-24T04:40:32.508Z,4.63
2019-02-24T04:43:20.561Z,5.60
2019-02-24T04:46:08.489Z,3.50
2019-02-24T04:48:56.497Z,4.67
2019-02-24T04:51:44.569Z,3.97
2019-02-24T04:54:32.681Z,3.67
2019-02-24T04:57:20.587Z,5.10
2019-02-24T05:02:55.909Z,4.63
2019-02-24T05:05:44.680Z,5.33
2019-02-24T05:08:32.434Z,4.03
2019-02-24T05:11:20.591Z,4.30
2019-02-24T05:14:08.831Z,3.73
2019-02-24T05:16:57.595Z,4.77
2019-02-24T05:19:45.580Z,6.00
2019-02-24T05:22:33.740Z,6.03
2019-02-24T05:25:22.016Z,5.40
2019-02-24T05:28:10.035Z,4.40
2019-02-24T05:30:58.378Z,4.17
2019-02-24T05:33:46.608Z,4.40
2019-02-24T05:36:34.656Z,3.63
2019-02-24T05:39:22.865Z,4.67
2019-02-24T05:42:10.641Z,4.17
2019-02-24T05:44:58.554Z,3.87
2019-02-24T05:47:46.534Z,4.90
2019-02-24T05:50:34.477Z,4.03
2019-02-24T05:53:22.613Z,5.90
2019-02-24T05:56:11.040Z,7.40
2019-02-24T05:58:59.135Z,5.03
2019-02-24T06:01:46.963Z,6.30
2019-02-24T06:04:35.335Z,6.53
2019-02-24T06:07:23.251Z,6.03
2019-02-24T06:10:11.093Z,5.43
2019-02-24T06:12:59.263Z,5.50
2019-02-24T06:15:47.467Z,4.50
2019-02-24T06:18:35.249Z,4.27
2019-02-24T06:21:23.344Z,3.87
2019-02-24T06:24:11.458Z,4.83
2019-02-24T06:26:59.694Z,5.07
2019-02-24T06:29:47.837Z,4.13
2019-02-24T06:38:10.440Z,4.93
2019-02-24T06:40:59.873Z,4.93
2019-02-24T06:43:48.523Z,4.77
2019-02-24T06:46:36.905Z,5.13
2019-02-24T06:49:24.960Z,4.63
2019-02-24T06:52:12.977Z,5.50
2019-02-24T06:55:01.042Z,5.97
2019-02-24T06:57:49.509Z,6.43
2019-02-24T07:00:37.519Z,5.77
2019-02-24T07:03:25.721Z,6.90
2019-02-24T07:06:13.687Z,5.93
2019-02-24T07:09:01.926Z,7.17
2019-02-24T07:11:50.870Z,6.30
2019-02-24T07:14:38.617Z,5.23
2019-02-24T07:17:26.381Z,4.97
2019-02-24T07:20:14.438Z,5.70
2019-02-24T07:23:02.281Z,5.87
2019-02-24T07:25:50.155Z,4.47
2019-02-24T07:28:38.573Z,5.30
2019-02-24T07:31:27.362Z,4.43
2019-02-24T07:40:06.739Z,5.60
2019-02-24T07:46:00.440Z,3.50
2019-02-24T07:48:48.915Z,5.07
2019-02-24T07:51:36.779Z,4.07
2019-02-24T07:54:25.269Z,3.60
2019-02-24T07:57:18.615Z,5.23
2019-02-24T08:03:28.717Z,3.77
2019-02-24T08:06:17.541Z,2.37
2019-02-24T08:09:06.183Z,5.93
2019-02-24T08:11:53.967Z,3.97
2019-02-24T08:14:42.367Z,3.87
2019-02-24T08:17:30.161Z,4.87
2019-02-24T08:20:18.222Z,5.07
2019-02-24T08:23:06.862Z,3.83
2019-02-24T08:25:55.349Z,4.67
2019-02-24T08:28:43.905Z,4.90
2019-02-24T08:31:32.732Z,5.80
2019-02-24T08:34:21.615Z,4.63
2019-02-24T08:37:09.804Z,4.37
2019-02-24T08:39:58.351Z,3.10
2019-02-24T08:42:46.731Z,3.53
2019-02-24T08:45:35.214Z,4.07
2019-02-24T08:48:23.430Z,4.47
2019-02-24T08:51:11.860Z,4.67
2019-02-24T08:54:00.320Z,4.97
2019-02-24T08:56:48.555Z,3.80
2019-02-24T08:59:38.262Z,6.23
2019-02-24T09:02:26.735Z,3.87
2019-02-24T09:05:15.313Z,5.83
2019-02-24T09:08:03.677Z,4.97
2019-02-24T09:10:51.826Z,4.20
2019-02-24T09:13:39.908Z,5.13
2019-02-24T09:16:27.804Z,4.93
2019-02-24T09:19:16.142Z,6.30
2019-02-24T09:22:04.201Z,4.70
2019-02-24T09:24:52.227Z,4.70
2019-02-24T09:27:40.224Z,3.33
2019-02-24T09:30:27.979Z,5.43
2019-02-24T09:33:16.244Z,4.83
2019-02-24T09:36:04.093Z,6.10
2019-02-24T09:38:52.140Z,3.80
2019-02-24T09:41:40.142Z,5.10
2019-02-24T09:44:28.531Z,4.00
2019-02-24T09:47:16.904Z,4.97
2019-02-24T09:50:05.403Z,4.03
2019-02-24T09:52:53.418Z,3.43
2019-02-24T09:55:41.881Z,5.33
2019-02-24T09:58:29.918Z,5.87
2019-02-24T10:01:17.908Z,5.03
2019-02-24T10:04:06.552Z,5.87
2019-02-24T10:06:54.827Z,4.87
2019-02-24T10:09:43.134Z,4.90
2019-02-24T10:12:31.045Z,5.57
2019-02-24T10:15:19.475Z,5.17
2019-02-24T10:18:07.306Z,5.13
2019-02-24T10:20:55.257Z,5.50
2019-02-24T10:23:43.783Z,4.07
2019-02-24T10:26:31.970Z,6.10
2019-02-24T10:29:20.161Z,4.30
2019-02-24T10:32:08.563Z,4.80
2019-02-24T10:34:57.166Z,3.83
2019-02-24T10:37:45.155Z,6.23
2019-02-24T10:40:33.627Z,4.07
2019-02-24T10:43:21.983Z,3.90
2019-02-24T10:46:11.452Z,4.63
2019-02-24T10:49:03.441Z,4.60
2019-02-24T10:51:48.809Z,3.83
2019-02-24T10:54:36.830Z,4.30
2019-02-24T10:57:26.127Z,3.63
2019-02-24T11:00:14.546Z,3.87
2019-02-24T11:03:03.179Z,5.00
2019-02-24T11:05:51.358Z,3.77
2019-02-24T11:08:39.286Z,4.37
2019-02-24T11:11:27.282Z,5.87
2019-02-24T11:14:15.901Z,3.97
2019-02-24T11:17:04.316Z,6.10
2019-02-24T11:19:52.846Z,3.70
2019-02-24T11:22:41.971Z,4.80
2019-02-24T11:25:29.992Z,3.93
2019-02-24T11:28:17.913Z,4.13
2019-02-24T11:31:06.057Z,3.53
2019-02-24T11:33:54.096Z,3.93
2019-02-24T11:36:43.745Z,4.47
2019-02-24T11:39:32.289Z,3.60
2019-02-24T11:42:20.784Z,4.13
2019-02-24T11:45:08.820Z,3.27
2019-02-24T11:47:57.174Z,4.10
2019-02-24T11:50:45.073Z,4.47
2019-02-24T11:53:33.550Z,3.17
2019-02-24T11:56:21.559Z,4.10
2019-02-24T11:59:09.446Z,3.43
2019-02-24T12:01:58.255Z,4.23
2019-02-24T12:04:46.081Z,5.03
2019-02-24T12:07:34.472Z,4.30
2019-02-24T12:10:22.663Z,4.70
2019-02-24T12:13:10.704Z,5.03
2019-02-24T12:16:00.081Z,4.67
2019-02-24T12:18:48.784Z,5.93
2019-02-24T12:21:36.651Z,4.60
2019-02-24T12:24:24.864Z,4.17
2019-02-24T12:27:12.981Z,5.17
2019-02-24T12:30:01.422Z,4.40
2019-02-24T12:32:49.490Z,4.93
2019-02-24T12:35:39.026Z,5.40
2019-02-24T12:38:29.745Z,3.93
2019-02-24T12:41:18.239Z,3.77
2019-02-24T12:44:06.390Z,4.47
2019-02-24T12:46:55.088Z,5.53
2019-02-24T12:49:42.991Z,7.57
2019-02-24T12:52:31.047Z,3.80
2019-02-24T12:55:19.503Z,4.53
2019-02-24T12:58:08.581Z,4.43
2019-02-24T13:00:56.395Z,4.10
2019-02-24T13:03:44.905Z,4.33
2019-02-24T13:06:33.659Z,5.27
2019-02-24T13:09:21.923Z,3.53
2019-02-24T13:12:11.265Z,5.63
2019-02-24T13:14:59.771Z,3.87
2019-02-24T13:17:48.429Z,4.83
2019-02-24T13:20:36.493Z,3.33
2019-02-24T13:26:11.928Z,3.70
2019-02-24T13:28:59.823Z,4.40
2019-02-24T13:31:48.180Z,6.77
2019-02-24T13:34:36.640Z,5.30
2019-02-24T13:37:24.638Z,3.77
2019-02-24T13:40:12.881Z,4.80
2019-02-24T13:43:00.774Z,4.30
2019-02-24T13:45:49.470Z,6.27
2019-02-24T13:48:37.510Z,4.80
2019-02-24T13:51:25.380Z,4.50
2019-02-24T13:54:13.402Z,4.00
2019-02-24T13:57:02.103Z,5.70
2019-02-24T14:02:49.219Z,3.73
2019-02-24T14:05:37.586Z,4.77
2019-02-24T14:08:25.607Z,3.87
2019-02-24T14:11:14.374Z,4.13
2019-02-24T14:14:02.949Z,4.60
2019-02-24T14:16:51.653Z,3.57
2019-02-24T14:19:39.473Z,5.47
2019-02-24T14:22:27.421Z,4.30
2019-02-24T14:25:16.138Z,5.20
2019-02-24T14:28:04.975Z,4.00
2019-02-24T14:30:53.693Z,3.80
2019-02-24T14:33:41.600Z,4.43
2019-02-24T14:36:30.187Z,4.33
2019-02-24T14:39:18.699Z,4.47
2019-02-24T14:42:07.414Z,4.70
2019-02-24T14:44:56.205Z,3.40
2019-02-24T14:47:44.657Z,2.70
2019-02-24T14:50:33.293Z,2.13
2019-02-24T14:53:22.113Z,2.77
2019-02-24T14:56:10.533Z,3.93
2019-02-24T14:58:58.250Z,2.50
2019-02-24T15:01:46.376Z,3.33
2019-02-24T15:04:34.452Z,2.87
2019-02-24T15:07:22.520Z,2.70
2019-02-24T15:10:10.429Z,1.90
2019-02-24T15:12:58.943Z,2.60
2019-02-24T15:15:47.351Z,3.03
2019-02-24T15:18:35.599Z,3.57
2019-02-24T15:21:23.614Z,2.30
2019-02-24T15:26:57.642Z,2.17
2019-02-24T15:29:45.989Z,3.63
2019-02-24T15:32:34.624Z,2.70
2019-02-24T15:35:23.210Z,3.03
2019-02-24T15:38:11.750Z,2.10
2019-02-24T15:41:00.591Z,2.67
2019-02-24T15:43:48.826Z,4.00
2019-02-24T15:46:37.022Z,2.67
2019-02-24T15:49:24.992Z,4.30
2019-02-24T15:52:12.829Z,2.67
2019-02-24T15:55:02.993Z,2.57
2019-02-24T15:57:51.307Z,2.77
2019-02-24T16:00:39.820Z,2.83
2019-02-24T16:03:28.365Z,3.10
2019-02-24T16:06:16.474Z,4.37
2019-02-24T16:09:04.498Z,3.50
2019-02-24T16:11:52.950Z,3.47
2019-02-24T16:14:41.757Z,5.57
2019-02-24T16:17:30.126Z,3.73
2019-02-24T16:20:18.540Z,3.53
2019-02-24T16:23:06.650Z,3.00
2019-02-24T16:25:54.501Z,4.20
2019-02-24T16:28:42.272Z,2.77
2019-02-24T16:31:30.987Z,5.37
2019-02-24T16:34:18.932Z,4.07
2019-02-24T16:37:08.160Z,4.93
2019-02-24T16:39:56.457Z,4.17
2019-02-24T16:42:44.481Z,4.93
2019-02-24T16:45:32.459Z,5.23
2019-02-24T16:48:20.202Z,6.33
2019-02-24T16:51:08.503Z,5.77
2019-02-24T16:53:56.308Z,4.13
2019-02-24T16:56:44.274Z,5.43
2019-02-24T16:59:32.211Z,4.37
2019-02-24T17:02:23.027Z,4.60
2019-02-24T17:05:10.680Z,4.57
2019-02-24T17:07:58.929Z,4.60
2019-02-24T17:10:47.652Z,4.50
2019-02-24T17:13:35.962Z,5.20
2019-02-24T17:16:24.520Z,4.97
2019-02-24T17:19:12.340Z,16.03
2019-02-24T17:22:00.273Z,9.43
2019-02-24T17:24:48.709Z,9.40
2019-02-24T17:27:36.578Z,7.83
2019-02-24T17:30:24.577Z,5.97
2019-02-24T17:33:13.130Z,3.90
2019-02-24T17:36:01.520Z,3.47
2019-02-24T17:38:50.612Z,6.30
2019-02-24T17:41:38.857Z,3.77
2019-02-24T17:44:26.658Z,3.23
2019-02-24T17:47:14.577Z,3.97
2019-02-24T17:50:02.841Z,4.67
2019-02-24T17:52:50.952Z,3.97
2019-02-24T17:55:38.844Z,4.23
2019-02-24T17:58:26.990Z,4.50
2019-02-24T18:01:15.887Z,5.87
2019-02-24T18:04:04.170Z,6.10
2019-02-24T18:06:52.648Z,8.43
2019-02-24T18:09:41.146Z,5.50
2019-02-24T18:12:29.624Z,3.87
2019-02-24T18:15:17.977Z,7.03
2019-02-24T18:18:06.855Z,5.00
2019-02-24T18:20:54.890Z,8.70
2019-02-24T18:23:42.783Z,7.50
2019-02-24T18:26:31.086Z,8.03
2019-02-24T18:29:19.780Z,3.60
2019-02-24T18:32:07.976Z,6.27
2019-02-24T18:34:56.332Z,5.70
2019-02-24T18:37:45.020Z,4.37
2019-02-24T18:43:19.866Z,5.57
2019-02-24T18:46:08.155Z,5.23
2019-02-24T18:48:56.425Z,6.70
2019-02-24T18:51:44.918Z,5.73
2019-02-24T18:54:34.998Z,6.17
2019-02-24T18:57:23.104Z,7.80
2019-02-24T19:00:11.728Z,6.77
2019-02-24T19:03:01.453Z,6.80
2019-02-24T19:05:49.772Z,9.00
2019-02-24T19:08:37.723Z,7.40
2019-02-24T19:11:25.977Z,6.07
2019-02-24T19:14:14.495Z,9.57
2019-02-24T19:17:02.375Z,6.57
2019-02-24T19:19:50.907Z,11.30
2019-02-24T19:22:38.940Z,7.37
2019-02-24T19:25:27.336Z,7.63
2019-02-24T19:28:16.237Z,7.77
2019-02-24T19:31:04.225Z,9.87
2019-02-24T19:33:53.022Z,7.83
2019-02-24T19:36:41.367Z,8.70
2019-02-24T19:39:29.987Z,8.97
2019-02-24T19:42:18.821Z,6.83
2019-02-24T19:45:06.831Z,11.40
2019-02-24T19:47:55.507Z,9.50
2019-02-24T19:50:43.577Z,8.97
2019-02-24T19:53:32.111Z,10.40
2019-02-24T19:56:20.861Z,7.80
2019-02-24T19:59:09.573Z,9.63
2019-02-24T20:01:58.282Z,8.17
2019-02-24T20:04:48.396Z,10.10
2019-02-24T20:07:37.239Z,7.27
2019-02-24T20:10:25.246Z,8.63
2019-02-24T20:13:14.443Z,8.63
2019-02-24T20:16:02.798Z,8.77
2019-02-24T20:21:46.331Z,9.60
2019-02-24T20:24:35.877Z,8.53
2019-02-24T20:27:23.867Z,11.07
2019-02-24T20:33:07.211Z,8.00
2019-02-24T20:35:55.803Z,7.80
2019-02-24T20:41:36.198Z,7.47
2019-02-24T20:44:24.033Z,9.30
2019-02-24T20:47:12.313Z,8.23
2019-02-24T20:50:00.288Z,8.10
2019-02-24T20:52:49.083Z,8.83
2019-02-24T20:55:37.139Z,7.97
2019-02-24T20:58:25.977Z,7.83
2019-02-24T21:01:14.715Z,6.87
2019-02-24T21:04:03.105Z,7.80
2019-02-24T21:06:51.748Z,7.10
2019-02-24T21:09:39.721Z,8.67
2019-02-24T21:12:27.714Z,8.13
2019-02-24T21:15:15.673Z,8.10
2019-02-24T21:18:03.721Z,7.33
2019-02-24T21:20:52.415Z,7.77
2019-02-24T21:23:40.788Z,8.43
2019-02-24T21:26:29.692Z,8.57
2019-02-24T21:29:17.892Z,8.20
2019-02-24T21:32:05.745Z,8.27
2019-02-24T21:34:54.460Z,8.33
2019-02-24T21:37:42.343Z,8.13
2019-02-24T21:40:30.360Z,8.67
2019-02-24T21:43:18.850Z,7.30
2019-02-24T21:46:07.346Z,6.83
2019-02-24T21:48:55.475Z,10.07
2019-02-24T21:51:43.869Z,7.83
2019-02-24T21:54:32.325Z,7.63
2019-02-24T21:57:20.835Z,9.33
2019-02-24T22:00:09.360Z,8.43
2019-02-24T22:02:57.692Z,10.97
2019-02-24T22:05:45.457Z,7.97
2019-02-24T22:08:15.821Z,8.93
2019-02-24T22:11:05.264Z,7.77
2019-02-24T22:13:54.720Z,7.47
2019-02-24T22:16:42.473Z,8.80
2019-02-24T22:19:31.003Z,8.90
2019-02-24T22:22:18.738Z,7.30
2019-02-24T22:25:06.835Z,7.50
2019-02-24T22:30:41.942Z,10.60
2019-02-24T22:33:30.555Z,7.13
2019-02-24T22:36:18.389Z,7.83
2019-02-24T22:39:07.177Z,8.03
2019-02-24T22:41:54.882Z,9.17
2019-02-24T22:44:42.924Z,9.73
2019-02-24T22:47:30.618Z,8.20
2019-02-24T22:50:18.588Z,9.73
2019-02-24T22:53:06.768Z,8.17
2019-02-24T22:55:55.186Z,7.37
2019-02-24T22:58:43.596Z,9.27
2019-02-24T23:04:33.156Z,7.60
2019-02-24T23:07:21.170Z,9.70
2019-02-24T23:10:09.406Z,6.83
2019-02-24T23:12:57.530Z,10.77
2019-02-24T23:15:45.427Z,7.83
2019-02-24T23:18:33.951Z,9.53
2019-02-24T23:21:22.300Z,9.33
2019-02-24T23:24:10.783Z,9.20
2019-02-24T23:26:59.281Z,10.10
2019-02-24T23:29:47.649Z,8.93
2019-02-24T23:32:36.088Z,9.77
2019-02-24T23:35:24.481Z,10.33
2019-02-24T23:38:12.377Z,9.87
2019-02-24T23:41:00.689Z,9.13
2019-02-24T23:43:49.058Z,11.77
2019-02-24T23:46:36.921Z,8.00
2019-02-24T23:49:25.041Z,10.40
2019-02-24T23:52:13.153Z,12.13
2019-02-24T23:55:01.680Z,8.77
